sensor_id;sensor_type;location;lat;lon;timestamp;temperature;humidity
820;DHT22;392;48.838;2.322;2023-07-24T00:01:24;23.80;33.80
820;DHT22;392;48.838;2.322;2023-07-24T00:03:51;23.80;33.80
820;DHT22;392;48.838;2.322;2023-07-24T00:06:20;23.80;33.60
820;DHT22;392;48.838;2.322;2023-07-24T00:08:48;23.80;33.50
820;DHT22;392;48.838;2.322;2023-07-24T00:11:15;23.90;33.40
820;DHT22;392;48.838;2.322;2023-07-24T00:13:42;23.90;33.30
820;DHT22;392;48.838;2.322;2023-07-24T00:16:10;23.90;33.10
820;DHT22;392;48.838;2.322;2023-07-24T00:18:39;23.90;33.00
820;DHT22;392;48.838;2.322;2023-07-24T00:21:08;23.90;32.80
820;DHT22;392;48.838;2.322;2023-07-24T00:23:36;23.90;32.60
820;DHT22;392;48.838;2.322;2023-07-24T00:26:03;23.90;32.60
820;DHT22;392;48.838;2.322;2023-07-24T00:28:32;23.90;32.60
820;DHT22;392;48.838;2.322;2023-07-24T00:31:00;23.90;32.60
820;DHT22;392;48.838;2.322;2023-07-24T00:33:28;23.90;32.70
820;DHT22;392;48.838;2.322;2023-07-24T00:35:59;23.90;32.30
820;DHT22;392;48.838;2.322;2023-07-24T00:38:26;23.90;32.20
820;DHT22;392;48.838;2.322;2023-07-24T00:40:54;23.90;33.50
820;DHT22;392;48.838;2.322;2023-07-24T00:43:22;23.80;31.90
820;DHT22;392;48.838;2.322;2023-07-24T00:45:50;23.90;31.90
820;DHT22;392;48.838;2.322;2023-07-24T00:48:18;23.90;32.10
820;DHT22;392;48.838;2.322;2023-07-24T00:50:46;23.90;31.90
820;DHT22;392;48.838;2.322;2023-07-24T00:53:16;23.90;31.70
820;DHT22;392;48.838;2.322;2023-07-24T00:55:44;23.90;31.50
820;DHT22;392;48.838;2.322;2023-07-24T00:58:12;23.90;31.20
820;DHT22;392;48.838;2.322;2023-07-24T01:00:40;23.90;30.60
820;DHT22;392;48.838;2.322;2023-07-24T01:03:08;23.90;30.60
820;DHT22;392;48.838;2.322;2023-07-24T01:05:38;24.00;31.00
820;DHT22;392;48.838;2.322;2023-07-24T01:08:07;24.00;30.50
820;DHT22;392;48.838;2.322;2023-07-24T01:10:36;23.90;30.30
820;DHT22;392;48.838;2.322;2023-07-24T01:13:08;23.90;30.00
820;DHT22;392;48.838;2.322;2023-07-24T01:15:45;23.90;30.50
820;DHT22;392;48.838;2.322;2023-07-24T01:18:17;23.90;30.50
820;DHT22;392;48.838;2.322;2023-07-24T01:20:48;23.80;30.50
820;DHT22;392;48.838;2.322;2023-07-24T01:23:36;23.90;30.30
820;DHT22;392;48.838;2.322;2023-07-24T01:26:09;23.90;30.10
820;DHT22;392;48.838;2.322;2023-07-24T01:28:38;23.90;30.10
820;DHT22;392;48.838;2.322;2023-07-24T01:31:06;23.90;30.10
820;DHT22;392;48.838;2.322;2023-07-24T01:33:34;23.90;29.90
820;DHT22;392;48.838;2.322;2023-07-24T01:36:03;23.90;29.40
820;DHT22;392;48.838;2.322;2023-07-24T01:38:34;23.90;29.90
820;DHT22;392;48.838;2.322;2023-07-24T01:41:06;23.90;29.80
820;DHT22;392;48.838;2.322;2023-07-24T01:43:38;23.90;29.60
820;DHT22;392;48.838;2.322;2023-07-24T01:46:06;23.80;29.50
820;DHT22;392;48.838;2.322;2023-07-24T01:48:35;23.90;29.40
820;DHT22;392;48.838;2.322;2023-07-24T01:51:04;23.90;29.30
820;DHT22;392;48.838;2.322;2023-07-24T01:53:33;23.80;28.70
820;DHT22;392;48.838;2.322;2023-07-24T01:56:02;23.80;29.10
820;DHT22;392;48.838;2.322;2023-07-24T01:58:30;23.90;29.10
820;DHT22;392;48.838;2.322;2023-07-24T02:00:58;23.90;28.90
820;DHT22;392;48.838;2.322;2023-07-24T02:03:26;23.80;28.90
820;DHT22;392;48.838;2.322;2023-07-24T02:05:54;23.90;28.90
820;DHT22;392;48.838;2.322;2023-07-24T02:08:21;23.90;28.90
820;DHT22;392;48.838;2.322;2023-07-24T02:10:50;23.90;28.80
820;DHT22;392;48.838;2.322;2023-07-24T02:13:18;23.90;28.80
820;DHT22;392;48.838;2.322;2023-07-24T02:15:49;23.90;28.80
820;DHT22;392;48.838;2.322;2023-07-24T02:18:19;23.80;29.20
820;DHT22;392;48.838;2.322;2023-07-24T02:20:49;23.70;29.70
820;DHT22;392;48.838;2.322;2023-07-24T02:23:17;23.60;30.60
820;DHT22;392;48.838;2.322;2023-07-24T02:25:45;23.60;30.10
820;DHT22;392;48.838;2.322;2023-07-24T02:28:12;23.70;30.00
820;DHT22;392;48.838;2.322;2023-07-24T02:30:40;23.80;29.90
820;DHT22;392;48.838;2.322;2023-07-24T02:33:08;23.80;29.90
820;DHT22;392;48.838;2.322;2023-07-24T02:35:41;23.80;30.00
820;DHT22;392;48.838;2.322;2023-07-24T02:38:11;23.80;30.00
820;DHT22;392;48.838;2.322;2023-07-24T02:40:41;23.80;29.60
820;DHT22;392;48.838;2.322;2023-07-24T02:43:11;23.70;30.00
820;DHT22;392;48.838;2.322;2023-07-24T02:45:39;23.70;30.00
820;DHT22;392;48.838;2.322;2023-07-24T02:48:06;23.70;30.00
820;DHT22;392;48.838;2.322;2023-07-24T02:50:34;23.70;29.60
820;DHT22;392;48.838;2.322;2023-07-24T02:53:03;23.70;29.60
820;DHT22;392;48.838;2.322;2023-07-24T02:55:30;23.70;30.10
820;DHT22;392;48.838;2.322;2023-07-24T02:57:59;23.80;30.10
820;DHT22;392;48.838;2.322;2023-07-24T03:00:29;23.80;30.10
820;DHT22;392;48.838;2.322;2023-07-24T03:02:56;23.70;30.10
820;DHT22;392;48.838;2.322;2023-07-24T03:05:23;23.70;30.40
820;DHT22;392;48.838;2.322;2023-07-24T03:07:51;23.70;30.50
820;DHT22;392;48.838;2.322;2023-07-24T03:10:22;23.70;30.70
820;DHT22;392;48.838;2.322;2023-07-24T03:12:49;23.70;30.30
820;DHT22;392;48.838;2.322;2023-07-24T03:15:18;23.70;31.00
820;DHT22;392;48.838;2.322;2023-07-24T03:17:46;23.70;30.40
820;DHT22;392;48.838;2.322;2023-07-24T03:20:16;23.70;30.40
820;DHT22;392;48.838;2.322;2023-07-24T03:22:44;23.70;30.40
820;DHT22;392;48.838;2.322;2023-07-24T03:25:11;23.70;31.10
820;DHT22;392;48.838;2.322;2023-07-24T03:27:41;23.70;31.00
820;DHT22;392;48.838;2.322;2023-07-24T03:30:10;23.70;30.40
820;DHT22;392;48.838;2.322;2023-07-24T03:32:38;23.70;30.40
820;DHT22;392;48.838;2.322;2023-07-24T03:35:06;23.70;31.00
820;DHT22;392;48.838;2.322;2023-07-24T03:37:34;23.70;31.00
820;DHT22;392;48.838;2.322;2023-07-24T03:40:04;23.70;31.40
820;DHT22;392;48.838;2.322;2023-07-24T03:42:32;23.70;32.20
820;DHT22;392;48.838;2.322;2023-07-24T03:45:02;23.60;31.90
820;DHT22;392;48.838;2.322;2023-07-24T03:47:30;23.60;32.80
820;DHT22;392;48.838;2.322;2023-07-24T03:49:58;23.50;32.40
820;DHT22;392;48.838;2.322;2023-07-24T03:52:26;23.60;33.10
820;DHT22;392;48.838;2.322;2023-07-24T03:54:54;23.60;33.20
820;DHT22;392;48.838;2.322;2023-07-24T03:59:49;23.50;33.30
820;DHT22;392;48.838;2.322;2023-07-24T04:02:17;23.50;34.20
820;DHT22;392;48.838;2.322;2023-07-24T04:04:46;23.50;34.20
820;DHT22;392;48.838;2.322;2023-07-24T04:07:14;23.50;34.20
820;DHT22;392;48.838;2.322;2023-07-24T04:09:41;23.40;34.90
820;DHT22;392;48.838;2.322;2023-07-24T04:12:09;23.50;35.00
820;DHT22;392;48.838;2.322;2023-07-24T04:14:36;23.50;34.80
820;DHT22;392;48.838;2.322;2023-07-24T04:17:04;23.60;34.70
820;DHT22;392;48.838;2.322;2023-07-24T04:19:34;23.60;34.40
820;DHT22;392;48.838;2.322;2023-07-24T04:22:01;23.70;34.50
820;DHT22;392;48.838;2.322;2023-07-24T04:24:29;23.60;34.30
820;DHT22;392;48.838;2.322;2023-07-24T04:26:56;23.50;35.50
820;DHT22;392;48.838;2.322;2023-07-24T04:29:23;23.40;36.00
820;DHT22;392;48.838;2.322;2023-07-24T04:31:51;23.50;36.10
820;DHT22;392;48.838;2.322;2023-07-24T04:34:19;23.40;36.00
820;DHT22;392;48.838;2.322;2023-07-24T04:36:48;23.40;36.50
820;DHT22;392;48.838;2.322;2023-07-24T04:39:15;23.50;36.30
820;DHT22;392;48.838;2.322;2023-07-24T04:41:43;23.50;36.10
820;DHT22;392;48.838;2.322;2023-07-24T04:44:10;23.50;36.10
820;DHT22;392;48.838;2.322;2023-07-24T04:46:38;23.50;36.10
820;DHT22;392;48.838;2.322;2023-07-24T04:49:05;23.50;35.20
820;DHT22;392;48.838;2.322;2023-07-24T04:51:33;23.40;36.00
820;DHT22;392;48.838;2.322;2023-07-24T04:54:03;23.50;36.10
820;DHT22;392;48.838;2.322;2023-07-24T04:56:31;23.50;35.80
820;DHT22;392;48.838;2.322;2023-07-24T04:58:59;23.60;35.40
820;DHT22;392;48.838;2.322;2023-07-24T05:03:54;23.60;34.30
820;DHT22;392;48.838;2.322;2023-07-24T05:06:21;23.60;34.70
820;DHT22;392;48.838;2.322;2023-07-24T05:08:49;23.60;34.50
820;DHT22;392;48.838;2.322;2023-07-24T05:11:18;23.50;34.50
820;DHT22;392;48.838;2.322;2023-07-24T05:13:46;23.40;34.90
820;DHT22;392;48.838;2.322;2023-07-24T05:16:14;23.40;34.60
820;DHT22;392;48.838;2.322;2023-07-24T05:18:42;23.50;34.50
820;DHT22;392;48.838;2.322;2023-07-24T05:21:09;23.40;34.20
820;DHT22;392;48.838;2.322;2023-07-24T05:23:36;23.40;34.10
820;DHT22;392;48.838;2.322;2023-07-24T05:26:04;23.40;33.40
820;DHT22;392;48.838;2.322;2023-07-24T05:28:33;23.50;33.60
820;DHT22;392;48.838;2.322;2023-07-24T05:31:01;23.50;32.30
820;DHT22;392;48.838;2.322;2023-07-24T05:33:29;23.60;31.70
820;DHT22;392;48.838;2.322;2023-07-24T05:36:00;23.60;31.90
820;DHT22;392;48.838;2.322;2023-07-24T05:38:28;23.60;31.70
820;DHT22;392;48.838;2.322;2023-07-24T05:40:56;23.70;31.00
820;DHT22;392;48.838;2.322;2023-07-24T05:43:24;23.70;31.00
820;DHT22;392;48.838;2.322;2023-07-24T05:45:55;23.70;30.40
820;DHT22;392;48.838;2.322;2023-07-24T05:48:23;23.70;29.90
820;DHT22;392;48.838;2.322;2023-07-24T05:50:52;23.60;29.20
820;DHT22;392;48.838;2.322;2023-07-24T05:53:20;23.60;29.20
820;DHT22;392;48.838;2.322;2023-07-24T05:55:47;23.50;29.60
820;DHT22;392;48.838;2.322;2023-07-24T05:58:24;23.40;29.70
820;DHT22;392;48.838;2.322;2023-07-24T06:00:53;23.40;29.50
820;DHT22;392;48.838;2.322;2023-07-24T06:03:21;23.50;29.20
820;DHT22;392;48.838;2.322;2023-07-24T06:05:51;23.50;29.00
820;DHT22;392;48.838;2.322;2023-07-24T06:08:20;23.60;28.60
820;DHT22;392;48.838;2.322;2023-07-24T06:10:48;23.60;28.20
820;DHT22;392;48.838;2.322;2023-07-24T06:13:16;23.60;28.20
820;DHT22;392;48.838;2.322;2023-07-24T06:15:43;23.60;28.00
820;DHT22;392;48.838;2.322;2023-07-24T06:18:12;23.60;27.70
820;DHT22;392;48.838;2.322;2023-07-24T06:20:41;23.90;26.90
820;DHT22;392;48.838;2.322;2023-07-24T06:23:08;24.10;26.30
820;DHT22;392;48.838;2.322;2023-07-24T06:25:36;24.20;25.80
820;DHT22;392;48.838;2.322;2023-07-24T06:28:04;24.20;25.50
820;DHT22;392;48.838;2.322;2023-07-24T06:30:31;24.20;25.20
820;DHT22;392;48.838;2.322;2023-07-24T06:32:58;24.30;25.50
820;DHT22;392;48.838;2.322;2023-07-24T06:35:27;24.50;25.70
820;DHT22;392;48.838;2.322;2023-07-24T06:37:55;24.90;24.80
820;DHT22;392;48.838;2.322;2023-07-24T06:40:22;25.10;23.80
820;DHT22;392;48.838;2.322;2023-07-24T06:42:49;25.20;23.10
820;DHT22;392;48.838;2.322;2023-07-24T06:45:17;25.20;22.80
820;DHT22;392;48.838;2.322;2023-07-24T06:47:44;25.20;22.80
820;DHT22;392;48.838;2.322;2023-07-24T06:50:13;25.10;22.70
820;DHT22;392;48.838;2.322;2023-07-24T06:52:42;25.20;22.40
820;DHT22;392;48.838;2.322;2023-07-24T06:55:10;25.00;22.90
820;DHT22;392;48.838;2.322;2023-07-24T06:57:38;24.90;23.00
820;DHT22;392;48.838;2.322;2023-07-24T07:00:07;24.90;22.30
820;DHT22;392;48.838;2.322;2023-07-24T07:02:37;24.70;22.70
820;DHT22;392;48.838;2.322;2023-07-24T07:05:06;24.30;22.50
820;DHT22;392;48.838;2.322;2023-07-24T07:07:33;23.90;23.40
820;DHT22;392;48.838;2.322;2023-07-24T07:10:02;23.80;23.80
820;DHT22;392;48.838;2.322;2023-07-24T07:12:31;24.10;23.40
820;DHT22;392;48.838;2.322;2023-07-24T07:14:58;24.70;22.70
820;DHT22;392;48.838;2.322;2023-07-24T07:17:26;25.10;21.80
820;DHT22;392;48.838;2.322;2023-07-24T07:19:53;25.10;21.60
820;DHT22;392;48.838;2.322;2023-07-24T07:22:22;25.50;20.90
820;DHT22;392;48.838;2.322;2023-07-24T07:24:50;25.90;20.10
820;DHT22;392;48.838;2.322;2023-07-24T07:27:18;26.30;19.60
820;DHT22;392;48.838;2.322;2023-07-24T07:29:45;26.10;19.80
820;DHT22;392;48.838;2.322;2023-07-24T07:32:13;25.90;19.70
820;DHT22;392;48.838;2.322;2023-07-24T07:34:40;25.70;20.30
820;DHT22;392;48.838;2.322;2023-07-24T07:37:08;25.20;21.20
820;DHT22;392;48.838;2.322;2023-07-24T07:39:36;24.80;22.10
820;DHT22;392;48.838;2.322;2023-07-24T07:42:04;24.40;22.40
820;DHT22;392;48.838;2.322;2023-07-24T07:44:34;23.90;23.40
820;DHT22;392;48.838;2.322;2023-07-24T07:47:02;24.00;23.50
820;DHT22;392;48.838;2.322;2023-07-24T07:49:30;24.00;22.90
820;DHT22;392;48.838;2.322;2023-07-24T07:51:58;24.00;23.10
820;DHT22;392;48.838;2.322;2023-07-24T07:54:25;23.80;23.40
820;DHT22;392;48.838;2.322;2023-07-24T07:56:53;23.60;23.70
820;DHT22;392;48.838;2.322;2023-07-24T07:59:21;23.90;22.80
820;DHT22;392;48.838;2.322;2023-07-24T08:01:50;24.30;22.10
820;DHT22;392;48.838;2.322;2023-07-24T08:04:17;24.30;22.20
820;DHT22;392;48.838;2.322;2023-07-24T08:06:45;24.20;22.20
820;DHT22;392;48.838;2.322;2023-07-24T08:09:12;24.20;22.40
820;DHT22;392;48.838;2.322;2023-07-24T08:11:40;23.70;22.50
820;DHT22;392;48.838;2.322;2023-07-24T08:14:08;23.50;22.40
820;DHT22;392;48.838;2.322;2023-07-24T08:16:35;23.40;22.70
820;DHT22;392;48.838;2.322;2023-07-24T08:19:04;23.40;22.80
820;DHT22;392;48.838;2.322;2023-07-24T08:21:31;23.50;22.70
820;DHT22;392;48.838;2.322;2023-07-24T08:23:59;23.70;22.50
820;DHT22;392;48.838;2.322;2023-07-24T08:26:27;23.80;22.10
820;DHT22;392;48.838;2.322;2023-07-24T08:28:57;24.30;21.50
820;DHT22;392;48.838;2.322;2023-07-24T08:31:25;25.00;19.90
820;DHT22;392;48.838;2.322;2023-07-24T08:33:54;25.60;18.40
820;DHT22;392;48.838;2.322;2023-07-24T08:36:23;25.90;17.50
820;DHT22;392;48.838;2.322;2023-07-24T08:38:51;26.20;16.70
820;DHT22;392;48.838;2.322;2023-07-24T08:41:18;26.10;16.50
820;DHT22;392;48.838;2.322;2023-07-24T08:43:46;25.80;16.80
820;DHT22;392;48.838;2.322;2023-07-24T08:46:15;25.90;16.80
820;DHT22;392;48.838;2.322;2023-07-24T08:48:43;25.30;18.00
820;DHT22;392;48.838;2.322;2023-07-24T08:51:13;24.80;18.20
820;DHT22;392;48.838;2.322;2023-07-24T08:53:43;24.60;18.40
820;DHT22;392;48.838;2.322;2023-07-24T08:56:12;24.80;18.40
820;DHT22;392;48.838;2.322;2023-07-24T08:58:40;25.10;17.60
820;DHT22;392;48.838;2.322;2023-07-24T09:01:08;25.70;16.30
820;DHT22;392;48.838;2.322;2023-07-24T09:03:38;25.80;15.80
820;DHT22;392;48.838;2.322;2023-07-24T09:06:05;26.10;15.40
820;DHT22;392;48.838;2.322;2023-07-24T09:08:35;26.50;14.50
820;DHT22;392;48.838;2.322;2023-07-24T09:11:06;26.50;14.30
820;DHT22;392;48.838;2.322;2023-07-24T09:13:36;26.40;14.20
820;DHT22;392;48.838;2.322;2023-07-24T09:16:04;25.90;14.10
820;DHT22;392;48.838;2.322;2023-07-24T09:18:38;25.70;14.80
820;DHT22;392;48.838;2.322;2023-07-24T09:21:07;25.90;14.80
820;DHT22;392;48.838;2.322;2023-07-24T09:23:35;26.30;14.50
820;DHT22;392;48.838;2.322;2023-07-24T09:26:07;25.90;15.10
820;DHT22;392;48.838;2.322;2023-07-24T09:28:35;26.10;14.90
820;DHT22;392;48.838;2.322;2023-07-24T09:31:03;25.60;14.70
820;DHT22;392;48.838;2.322;2023-07-24T09:33:35;25.00;16.20
820;DHT22;392;48.838;2.322;2023-07-24T09:36:04;24.50;17.00
820;DHT22;392;48.838;2.322;2023-07-24T09:38:33;24.10;17.60
820;DHT22;392;48.838;2.322;2023-07-24T09:41:02;23.90;18.40
820;DHT22;392;48.838;2.322;2023-07-24T09:43:31;23.90;18.40
820;DHT22;392;48.838;2.322;2023-07-24T09:45:59;23.60;18.20
820;DHT22;392;48.838;2.322;2023-07-24T09:48:27;23.60;19.00
820;DHT22;392;48.838;2.322;2023-07-24T09:50:55;24.20;18.30
820;DHT22;392;48.838;2.322;2023-07-24T09:53:31;25.20;16.60
820;DHT22;392;48.838;2.322;2023-07-24T09:56:02;25.60;15.60
820;DHT22;392;48.838;2.322;2023-07-24T09:58:33;25.00;16.60
820;DHT22;392;48.838;2.322;2023-07-24T10:01:02;25.20;16.30
820;DHT22;392;48.838;2.322;2023-07-24T10:03:34;25.40;16.30
820;DHT22;392;48.838;2.322;2023-07-24T10:06:02;25.60;15.90
820;DHT22;392;48.838;2.322;2023-07-24T10:08:30;25.70;14.90
820;DHT22;392;48.838;2.322;2023-07-24T10:10:58;24.90;16.30
820;DHT22;392;48.838;2.322;2023-07-24T10:13:26;24.40;17.40
820;DHT22;392;48.838;2.322;2023-07-24T10:15:57;24.50;17.60
820;DHT22;392;48.838;2.322;2023-07-24T10:18:27;24.80;16.90
820;DHT22;392;48.838;2.322;2023-07-24T10:21:00;24.70;17.10
820;DHT22;392;48.838;2.322;2023-07-24T10:23:29;25.20;16.40
820;DHT22;392;48.838;2.322;2023-07-24T10:26:02;26.10;15.10
820;DHT22;392;48.838;2.322;2023-07-24T10:28:32;26.10;14.90
820;DHT22;392;48.838;2.322;2023-07-24T10:31:02;26.50;14.40
820;DHT22;392;48.838;2.322;2023-07-24T10:33:31;26.70;14.00
820;DHT22;392;48.838;2.322;2023-07-24T10:36:07;26.50;14.10
820;DHT22;392;48.838;2.322;2023-07-24T10:38:37;26.60;13.40
820;DHT22;392;48.838;2.322;2023-07-24T10:41:08;26.20;14.40
820;DHT22;392;48.838;2.322;2023-07-24T10:43:41;25.40;15.00
820;DHT22;392;48.838;2.322;2023-07-24T10:46:11;24.80;16.60
820;DHT22;392;48.838;2.322;2023-07-24T10:48:42;25.10;16.10
820;DHT22;392;48.838;2.322;2023-07-24T10:51:10;25.10;16.30
820;DHT22;392;48.838;2.322;2023-07-24T10:53:44;24.50;16.50
820;DHT22;392;48.838;2.322;2023-07-24T10:56:13;24.60;16.60
820;DHT22;392;48.838;2.322;2023-07-24T10:58:41;24.60;17.10
820;DHT22;392;48.838;2.322;2023-07-24T11:01:10;25.00;16.80
820;DHT22;392;48.838;2.322;2023-07-24T11:03:41;25.00;16.60
820;DHT22;392;48.838;2.322;2023-07-24T11:06:13;24.80;16.70
820;DHT22;392;48.838;2.322;2023-07-24T11:08:41;24.40;17.90
820;DHT22;392;48.838;2.322;2023-07-24T11:11:10;24.10;18.40
820;DHT22;392;48.838;2.322;2023-07-24T11:13:38;24.10;18.00
820;DHT22;392;48.838;2.322;2023-07-24T11:16:07;24.40;17.60
820;DHT22;392;48.838;2.322;2023-07-24T11:18:49;24.40;17.70
820;DHT22;392;48.838;2.322;2023-07-24T11:21:18;24.40;17.70
820;DHT22;392;48.838;2.322;2023-07-24T11:23:49;24.80;17.90
820;DHT22;392;48.838;2.322;2023-07-24T11:26:19;24.90;17.10
820;DHT22;392;48.838;2.322;2023-07-24T11:28:48;24.50;17.60
820;DHT22;392;48.838;2.322;2023-07-24T11:31:16;24.20;18.20
820;DHT22;392;48.838;2.322;2023-07-24T11:33:49;23.90;18.40
820;DHT22;392;48.838;2.322;2023-07-24T11:36:17;23.80;18.70
820;DHT22;392;48.838;2.322;2023-07-24T11:38:45;23.80;19.30
820;DHT22;392;48.838;2.322;2023-07-24T11:41:12;24.00;18.50
820;DHT22;392;48.838;2.322;2023-07-24T11:43:46;24.20;18.40
820;DHT22;392;48.838;2.322;2023-07-24T11:46:26;24.40;18.00
820;DHT22;392;48.838;2.322;2023-07-24T11:48:55;24.40;18.00
820;DHT22;392;48.838;2.322;2023-07-24T11:51:23;24.30;17.90
820;DHT22;392;48.838;2.322;2023-07-24T11:53:51;24.30;18.00
820;DHT22;392;48.838;2.322;2023-07-24T11:56:19;24.40;18.00
820;DHT22;392;48.838;2.322;2023-07-24T11:58:47;24.40;17.80
820;DHT22;392;48.838;2.322;2023-07-24T12:01:15;24.40;17.60
820;DHT22;392;48.838;2.322;2023-07-24T12:03:44;24.30;17.50
820;DHT22;392;48.838;2.322;2023-07-24T12:06:16;24.30;17.60
820;DHT22;392;48.838;2.322;2023-07-24T12:08:44;24.20;17.00
820;DHT22;392;48.838;2.322;2023-07-24T12:11:18;24.00;17.30
820;DHT22;392;48.838;2.322;2023-07-24T12:13:48;24.00;17.30
820;DHT22;392;48.838;2.322;2023-07-24T12:16:15;23.90;17.60
820;DHT22;392;48.838;2.322;2023-07-24T12:18:44;23.80;17.80
820;DHT22;392;48.838;2.322;2023-07-24T12:21:12;23.70;18.00
820;DHT22;392;48.838;2.322;2023-07-24T12:23:49;23.70;18.30
820;DHT22;392;48.838;2.322;2023-07-24T12:26:17;23.80;18.30
820;DHT22;392;48.838;2.322;2023-07-24T12:28:44;24.00;18.10
820;DHT22;392;48.838;2.322;2023-07-24T12:31:12;24.10;18.00
820;DHT22;392;48.838;2.322;2023-07-24T12:33:40;24.20;17.90
820;DHT22;392;48.838;2.322;2023-07-24T12:36:07;24.20;17.90
820;DHT22;392;48.838;2.322;2023-07-24T12:38:34;24.20;17.90
820;DHT22;392;48.838;2.322;2023-07-24T12:41:04;24.20;18.00
820;DHT22;392;48.838;2.322;2023-07-24T12:43:31;24.20;18.10
820;DHT22;392;48.838;2.322;2023-07-24T12:45:58;24.10;17.70
820;DHT22;392;48.838;2.322;2023-07-24T12:48:26;24.00;18.10
820;DHT22;392;48.838;2.322;2023-07-24T12:50:53;24.00;18.10
820;DHT22;392;48.838;2.322;2023-07-24T12:53:22;24.00;18.00
820;DHT22;392;48.838;2.322;2023-07-24T12:55:49;24.00;18.20
820;DHT22;392;48.838;2.322;2023-07-24T12:58:20;23.90;18.40
820;DHT22;392;48.838;2.322;2023-07-24T13:00:47;24.00;18.50
820;DHT22;392;48.838;2.322;2023-07-24T13:03:15;24.10;17.90
820;DHT22;392;48.838;2.322;2023-07-24T13:05:42;24.20;18.20
820;DHT22;392;48.838;2.322;2023-07-24T13:08:11;24.10;18.50
820;DHT22;392;48.838;2.322;2023-07-24T13:13:06;23.90;18.70
820;DHT22;392;48.838;2.322;2023-07-24T13:15:36;23.80;19.60
820;DHT22;392;48.838;2.322;2023-07-24T13:18:04;23.70;20.10
820;DHT22;392;48.838;2.322;2023-07-24T13:22:59;23.70;20.90
820;DHT22;392;48.838;2.322;2023-07-24T13:25:27;23.70;22.00
820;DHT22;392;48.838;2.322;2023-07-24T13:27:54;23.70;22.50
820;DHT22;392;48.838;2.322;2023-07-24T13:30:22;23.70;22.50
820;DHT22;392;48.838;2.322;2023-07-24T13:32:51;23.80;23.10
820;DHT22;392;48.838;2.322;2023-07-24T13:35:19;23.90;22.70
820;DHT22;392;48.838;2.322;2023-07-24T13:37:48;24.20;22.00
820;DHT22;392;48.838;2.322;2023-07-24T13:40:17;24.50;21.90
820;DHT22;392;48.838;2.322;2023-07-24T13:42:44;24.80;21.60
820;DHT22;392;48.838;2.322;2023-07-24T13:45:12;24.90;21.40
820;DHT22;392;48.838;2.322;2023-07-24T13:47:39;24.80;21.40
820;DHT22;392;48.838;2.322;2023-07-24T13:50:08;24.80;21.60
820;DHT22;392;48.838;2.322;2023-07-24T13:52:36;25.00;21.30
820;DHT22;392;48.838;2.322;2023-07-24T13:55:04;25.10;20.60
820;DHT22;392;48.838;2.322;2023-07-24T13:57:33;25.00;21.20
820;DHT22;392;48.838;2.322;2023-07-24T14:00:01;24.80;21.50
820;DHT22;392;48.838;2.322;2023-07-24T14:02:38;24.80;22.10
820;DHT22;392;48.838;2.322;2023-07-24T14:05:08;24.90;22.00
820;DHT22;392;48.838;2.322;2023-07-24T14:07:37;25.20;21.20
820;DHT22;392;48.838;2.322;2023-07-24T14:10:06;25.20;20.70
820;DHT22;392;48.838;2.322;2023-07-24T14:12:34;25.00;21.30
820;DHT22;392;48.838;2.322;2023-07-24T14:15:02;24.80;21.70
820;DHT22;392;48.838;2.322;2023-07-24T14:17:30;24.70;22.00
820;DHT22;392;48.838;2.322;2023-07-24T14:19:57;24.60;21.80
820;DHT22;392;48.838;2.322;2023-07-24T14:22:27;24.80;21.80
820;DHT22;392;48.838;2.322;2023-07-24T14:24:56;24.80;21.80
820;DHT22;392;48.838;2.322;2023-07-24T14:27:23;24.90;21.60
820;DHT22;392;48.838;2.322;2023-07-24T14:29:51;25.00;21.20
820;DHT22;392;48.838;2.322;2023-07-24T14:32:19;25.00;21.40
820;DHT22;392;48.838;2.322;2023-07-24T14:34:49;24.80;21.40
820;DHT22;392;48.838;2.322;2023-07-24T14:37:18;24.60;21.70
820;DHT22;392;48.838;2.322;2023-07-24T14:39:46;24.60;22.30
820;DHT22;392;48.838;2.322;2023-07-24T14:42:16;24.50;22.40
820;DHT22;392;48.838;2.322;2023-07-24T14:44:44;24.50;22.60
820;DHT22;392;48.838;2.322;2023-07-24T14:47:11;24.50;21.90
820;DHT22;392;48.838;2.322;2023-07-24T14:49:39;24.60;22.30
820;DHT22;392;48.838;2.322;2023-07-24T14:52:07;24.60;22.60
820;DHT22;392;48.838;2.322;2023-07-24T14:54:35;24.60;22.70
820;DHT22;392;48.838;2.322;2023-07-24T14:57:05;24.60;23.00
820;DHT22;392;48.838;2.322;2023-07-24T14:59:33;24.50;23.10
820;DHT22;392;48.838;2.322;2023-07-24T15:02:00;24.60;23.20
820;DHT22;392;48.838;2.322;2023-07-24T15:04:29;24.80;22.90
820;DHT22;392;48.838;2.322;2023-07-24T15:06:56;24.90;22.50
820;DHT22;392;48.838;2.322;2023-07-24T15:09:23;25.10;22.20
820;DHT22;392;48.838;2.322;2023-07-24T15:11:51;25.00;22.30
820;DHT22;392;48.838;2.322;2023-07-24T15:14:20;24.90;22.50
820;DHT22;392;48.838;2.322;2023-07-24T15:16:48;24.70;22.80
820;DHT22;392;48.838;2.322;2023-07-24T15:19:16;24.60;22.80
820;DHT22;392;48.838;2.322;2023-07-24T15:21:43;24.50;23.00
820;DHT22;392;48.838;2.322;2023-07-24T15:24:11;24.50;23.10
820;DHT22;392;48.838;2.322;2023-07-24T15:26:43;24.50;23.10
820;DHT22;392;48.838;2.322;2023-07-24T15:29:11;24.60;23.20
820;DHT22;392;48.838;2.322;2023-07-24T15:31:41;24.70;22.80
820;DHT22;392;48.838;2.322;2023-07-24T15:34:09;24.80;22.40
820;DHT22;392;48.838;2.322;2023-07-24T15:36:36;24.80;21.80
820;DHT22;392;48.838;2.322;2023-07-24T15:39:04;24.70;22.40
820;DHT22;392;48.838;2.322;2023-07-24T15:41:31;24.60;22.30
820;DHT22;392;48.838;2.322;2023-07-24T15:43:59;24.50;23.10
820;DHT22;392;48.838;2.322;2023-07-24T15:46:26;24.40;24.10
820;DHT22;392;48.838;2.322;2023-07-24T15:48:58;24.40;23.80
820;DHT22;392;48.838;2.322;2023-07-24T15:51:27;24.40;24.40
820;DHT22;392;48.838;2.322;2023-07-24T15:53:55;24.40;25.20
820;DHT22;392;48.838;2.322;2023-07-24T15:56:23;24.50;25.80
820;DHT22;392;48.838;2.322;2023-07-24T15:58:51;24.50;26.10
820;DHT22;392;48.838;2.322;2023-07-24T16:01:18;24.40;25.80
820;DHT22;392;48.838;2.322;2023-07-24T16:03:45;24.40;26.10
820;DHT22;392;48.838;2.322;2023-07-24T16:06:16;24.40;26.00
820;DHT22;392;48.838;2.322;2023-07-24T16:08:43;24.40;26.30
820;DHT22;392;48.838;2.322;2023-07-24T16:11:11;24.40;26.60
820;DHT22;392;48.838;2.322;2023-07-24T16:13:40;24.30;26.70
820;DHT22;392;48.838;2.322;2023-07-24T16:16:09;24.30;27.10
820;DHT22;392;48.838;2.322;2023-07-24T16:18:36;24.30;27.10
820;DHT22;392;48.838;2.322;2023-07-24T16:21:04;24.40;27.50
820;DHT22;392;48.838;2.322;2023-07-24T16:23:32;24.30;29.10
820;DHT22;392;48.838;2.322;2023-07-24T16:26:00;24.30;28.30
820;DHT22;392;48.838;2.322;2023-07-24T16:28:27;24.30;29.80
820;DHT22;392;48.838;2.322;2023-07-24T16:30:55;24.30;29.90
820;DHT22;392;48.838;2.322;2023-07-24T16:33:23;24.10;30.40
820;DHT22;392;48.838;2.322;2023-07-24T16:35:51;24.10;29.80
820;DHT22;392;48.838;2.322;2023-07-24T16:40:49;24.30;29.10
820;DHT22;392;48.838;2.322;2023-07-24T16:43:17;24.30;29.30
820;DHT22;392;48.838;2.322;2023-07-24T16:45:45;24.30;29.20
820;DHT22;392;48.838;2.322;2023-07-24T16:48:15;24.30;29.90
820;DHT22;392;48.838;2.322;2023-07-24T16:50:42;24.30;30.30
820;DHT22;392;48.838;2.322;2023-07-24T16:53:10;24.20;31.00
820;DHT22;392;48.838;2.322;2023-07-24T16:55:37;24.10;31.40